createdAt,value
2023-03-16T00:00:45.992Z,2.20
2023-03-16T00:03:19.151Z,2.33
2023-03-16T00:05:47.691Z,2.40
2023-03-16T00:08:14.960Z,2.70
2023-03-16T00:10:46.749Z,1.43
2023-03-16T00:13:17.650Z,1.40
2023-03-16T00:15:54.323Z,1.20
2023-03-16T00:18:22.380Z,1.33
2023-03-16T00:20:53.853Z,1.03
2023-03-16T00:23:27.451Z,1.30
2023-03-16T00:25:58.966Z,2.00
2023-03-16T00:28:27.846Z,2.03
2023-03-16T00:30:59.277Z,1.37
2023-03-16T00:33:26.886Z,1.53
2023-03-16T00:36:04.023Z,1.10
2023-03-16T00:38:34.813Z,1.40
2023-03-16T00:41:04.220Z,1.40
2023-03-16T00:43:32.252Z,1.33
2023-03-16T00:46:01.516Z,1.80
2023-03-16T00:48:28.265Z,1.60
2023-03-16T00:50:54.941Z,1.90
2023-03-16T00:53:22.290Z,1.47
2023-03-16T00:55:49.310Z,1.23
2023-03-16T00:58:15.990Z,1.20
2023-03-16T01:00:43.140Z,1.30
2023-03-16T01:03:09.861Z,1.30
2023-03-16T01:05:40.878Z,1.53
2023-03-16T01:08:08.466Z,2.17
2023-03-16T01:10:36.113Z,1.50
2023-03-16T01:13:03.261Z,1.53
2023-03-16T01:15:34.935Z,1.67
2023-03-16T01:18:02.027Z,2.10
2023-03-16T01:20:29.107Z,1.50
2023-03-16T01:22:56.051Z,1.60
2023-03-16T01:25:24.304Z,1.43
2023-03-16T01:27:51.033Z,1.30
2023-03-16T01:30:17.912Z,1.43
2023-03-16T01:32:44.701Z,1.53
2023-03-16T01:35:11.930Z,2.10
2023-03-16T01:37:38.689Z,1.37
2023-03-16T01:40:06.914Z,1.53
2023-03-16T01:42:44.429Z,1.80
2023-03-16T01:45:48.613Z,1.33
2023-03-16T01:48:15.410Z,1.60
2023-03-16T01:50:42.405Z,1.63
2023-03-16T01:53:10.132Z,0.90
2023-03-16T01:55:36.872Z,1.63
2023-03-16T01:58:03.890Z,1.60
2023-03-16T02:00:32.728Z,0.90
2023-03-16T02:03:05.234Z,1.67
2023-03-16T02:05:34.990Z,1.33
2023-03-16T02:08:02.664Z,1.30
2023-03-16T02:10:30.031Z,1.80
2023-03-16T02:12:58.137Z,1.90
2023-03-16T02:15:25.393Z,1.60
2023-03-16T02:17:52.181Z,2.13
2023-03-16T02:20:31.061Z,2.20
2023-03-16T02:22:58.180Z,1.50
2023-03-16T02:25:50.335Z,1.50
2023-03-16T02:28:37.506Z,1.73
2023-03-16T02:31:05.528Z,1.03
2023-03-16T02:33:33.102Z,1.53
2023-03-16T02:35:59.904Z,1.33
2023-03-16T02:38:26.718Z,1.53
2023-03-16T02:41:20.730Z,1.60
2023-03-16T02:44:05.505Z,1.20
2023-03-16T02:46:35.932Z,1.20
2023-03-16T02:49:26.604Z,1.20
2023-03-16T02:51:53.570Z,1.30
2023-03-16T02:54:20.375Z,1.33
2023-03-16T02:56:47.406Z,1.30
2023-03-16T02:59:14.195Z,0.97
2023-03-16T03:01:40.955Z,1.10
2023-03-16T03:04:08.151Z,1.40
2023-03-16T03:06:35.041Z,0.90
2023-03-16T03:09:02.271Z,0.90
2023-03-16T03:11:29.100Z,1.00
2023-03-16T03:13:56.265Z,1.20
2023-03-16T03:16:23.090Z,1.03
2023-03-16T03:18:50.097Z,1.13
2023-03-16T03:21:17.049Z,1.30
2023-03-16T03:23:46.751Z,1.07
2023-03-16T03:26:15.393Z,1.07
2023-03-16T03:28:42.543Z,1.30
2023-03-16T03:31:17.699Z,1.30
2023-03-16T03:33:45.083Z,1.17
2023-03-16T03:36:12.189Z,1.10
2023-03-16T03:38:38.968Z,1.10
2023-03-16T03:41:07.771Z,0.70
2023-03-16T03:43:34.913Z,0.80
2023-03-16T03:46:02.824Z,1.30
2023-03-16T03:48:29.798Z,1.10
2023-03-16T03:50:56.595Z,0.70
2023-03-16T03:53:23.364Z,1.40
2023-03-16T03:55:50.254Z,0.93
2023-03-16T03:58:17.166Z,0.90
2023-03-16T04:00:44.133Z,0.67
2023-03-16T04:03:11.046Z,0.80
2023-03-16T04:05:37.861Z,0.80
2023-03-16T04:08:04.781Z,0.70
2023-03-16T04:10:31.770Z,1.07
2023-03-16T04:12:59.222Z,1.07
2023-03-16T04:15:26.186Z,1.00
2023-03-16T04:17:52.873Z,0.93
2023-03-16T04:20:20.870Z,1.00
2023-03-16T04:22:47.880Z,0.80
2023-03-16T04:25:16.892Z,1.57
2023-03-16T04:27:43.803Z,1.70
2023-03-16T04:30:15.791Z,1.10
2023-03-16T04:32:42.662Z,1.30
2023-03-16T04:35:10.421Z,1.50
2023-03-16T04:37:37.230Z,1.30
2023-03-16T04:40:11.927Z,0.93
2023-03-16T04:42:38.679Z,1.13
2023-03-16T04:45:05.713Z,1.20
2023-03-16T04:47:34.094Z,1.20
2023-03-16T04:50:02.828Z,0.90
2023-03-16T04:52:29.921Z,1.47
2023-03-16T04:54:56.742Z,1.90
2023-03-16T04:57:23.503Z,3.47
2023-03-16T04:59:50.305Z,4.30
2023-03-16T05:02:17.730Z,4.77
2023-03-16T05:04:44.440Z,3.00
2023-03-16T05:07:11.649Z,1.50
2023-03-16T05:09:38.386Z,1.80
2023-03-16T05:12:05.476Z,1.43
2023-03-16T05:14:32.873Z,0.70
2023-03-16T05:16:59.707Z,0.80
2023-03-16T05:19:26.401Z,1.00
2023-03-16T05:21:53.131Z,1.10
2023-03-16T05:24:19.909Z,1.03
2023-03-16T05:26:46.457Z,0.70
2023-03-16T05:29:13.051Z,0.70
2023-03-16T05:31:39.752Z,1.20
2023-03-16T05:34:06.390Z,1.00
2023-03-16T05:36:35.982Z,0.97
2023-03-16T05:39:02.846Z,1.33
2023-03-16T05:41:30.209Z,0.87
2023-03-16T05:43:56.898Z,1.80
2023-03-16T05:46:23.764Z,1.37
2023-03-16T05:48:50.542Z,1.60
2023-03-16T05:51:17.336Z,1.90
2023-03-16T05:53:46.961Z,1.87
2023-03-16T05:56:13.661Z,2.73
2023-03-16T05:58:40.258Z,1.97
2023-03-16T06:01:09.596Z,0.70
2023-03-16T06:03:36.802Z,0.60
2023-03-16T06:06:04.565Z,0.70
2023-03-16T06:08:31.317Z,0.87
2023-03-16T06:10:58.031Z,0.83
2023-03-16T06:13:24.836Z,1.13
2023-03-16T06:15:51.602Z,0.87
2023-03-16T06:18:18.408Z,1.20
2023-03-16T06:20:47.172Z,1.10
2023-03-16T06:23:14.167Z,1.03
2023-03-16T06:25:41.073Z,0.90
2023-03-16T06:28:08.039Z,1.00
2023-03-16T06:30:34.887Z,1.33
2023-03-16T06:33:02.338Z,0.90
2023-03-16T06:35:29.121Z,1.40
2023-03-16T06:37:55.900Z,1.10
2023-03-16T06:40:22.729Z,1.30
2023-03-16T06:42:49.970Z,2.03
2023-03-16T06:45:18.428Z,1.93
2023-03-16T06:47:45.178Z,1.20
2023-03-16T06:50:12.178Z,1.37
2023-03-16T06:52:39.248Z,1.40
2023-03-16T06:55:06.623Z,1.13
2023-03-16T06:57:33.442Z,1.50
2023-03-16T07:00:00.278Z,1.27
2023-03-16T07:02:27.102Z,2.10
2023-03-16T07:04:54.275Z,1.73
2023-03-16T07:07:22.005Z,1.27
2023-03-16T07:09:48.789Z,1.10
2023-03-16T07:12:15.515Z,1.30
2023-03-16T07:14:42.297Z,1.13
2023-03-16T07:17:09.157Z,1.70
2023-03-16T07:19:35.965Z,1.63
2023-03-16T07:22:02.971Z,1.93
2023-03-16T07:24:30.952Z,1.27
2023-03-16T07:26:57.603Z,1.60
2023-03-16T07:29:24.315Z,2.80
2023-03-16T07:31:51.317Z,2.70
2023-03-16T07:34:18.493Z,6.27
2023-03-16T07:36:45.303Z,8.40
2023-03-16T07:39:14.487Z,6.17
2023-03-16T07:41:41.855Z,4.40
2023-03-16T07:44:08.594Z,5.10
2023-03-16T07:46:35.422Z,4.27
2023-03-16T07:49:02.710Z,4.30
2023-03-16T07:51:29.435Z,4.33
2023-03-16T07:53:56.241Z,4.53
2023-03-16T07:56:23.035Z,3.90
2023-03-16T07:58:49.737Z,3.80
2023-03-16T08:01:16.524Z,3.17
2023-03-16T08:03:44.244Z,3.20
2023-03-16T08:06:12.226Z,3.40
2023-03-16T08:08:39.022Z,2.80
2023-03-16T08:11:05.982Z,3.30
2023-03-16T08:13:32.877Z,2.77
2023-03-16T08:16:02.078Z,3.03
2023-03-16T08:18:30.272Z,2.97
2023-03-16T08:20:57.777Z,2.30
2023-03-16T08:23:26.150Z,2.47
2023-03-16T08:25:54.746Z,3.47
2023-03-16T08:28:26.016Z,3.30
2023-03-16T08:30:54.088Z,3.60
2023-03-16T08:33:23.133Z,3.40
2023-03-16T08:35:51.048Z,3.40
2023-03-16T08:38:19.296Z,3.30
2023-03-16T08:40:49.122Z,3.53
2023-03-16T08:43:17.232Z,3.73
2023-03-16T08:45:47.678Z,3.90
2023-03-16T08:48:15.027Z,3.57
2023-03-16T08:50:44.160Z,3.93
2023-03-16T08:53:12.127Z,3.20
2023-03-16T08:55:38.797Z,2.97
2023-03-16T08:58:05.591Z,2.93
2023-03-16T09:00:32.276Z,3.13
2023-03-16T09:02:59.045Z,3.30
2023-03-16T09:05:25.847Z,3.20
2023-03-16T09:07:54.257Z,2.03
2023-03-16T09:10:23.241Z,2.10
2023-03-16T09:12:50.708Z,2.10
2023-03-16T09:15:17.896Z,2.30
2023-03-16T09:17:45.956Z,3.00
2023-03-16T09:20:26.918Z,2.20
2023-03-16T09:22:56.785Z,3.60
2023-03-16T09:25:25.481Z,2.80
2023-03-16T09:27:52.873Z,3.00
2023-03-16T09:30:19.977Z,2.60
2023-03-16T09:32:49.007Z,2.00
2023-03-16T09:35:16.088Z,1.50
2023-03-16T09:38:04.676Z,1.90
2023-03-16T09:40:30.863Z,1.40
2023-03-16T09:43:07.303Z,1.33
2023-03-16T09:46:01.860Z,0.90
2023-03-16T09:48:32.983Z,0.90
2023-03-16T09:51:02.315Z,0.93
2023-03-16T09:53:34.560Z,1.10
2023-03-16T09:56:04.270Z,1.10
2023-03-16T09:58:32.973Z,0.90
2023-03-16T10:01:09.910Z,1.23
2023-03-16T10:04:04.856Z,1.13
2023-03-16T10:06:33.348Z,0.87
2023-03-16T10:09:29.304Z,1.37
2023-03-16T10:11:58.026Z,1.70
2023-03-16T10:14:42.804Z,1.40
2023-03-16T10:17:23.124Z,1.53
2023-03-16T10:20:09.276Z,2.20
2023-03-16T10:22:41.092Z,1.10
2023-03-16T10:25:13.972Z,1.60
2023-03-16T10:27:45.237Z,1.50
2023-03-16T10:30:31.426Z,1.67
2023-03-16T10:33:13.364Z,0.97
2023-03-16T10:35:54.311Z,1.40
2023-03-16T10:38:41.301Z,1.20
2023-03-16T10:41:22.862Z,1.60
2023-03-16T10:43:52.587Z,0.90
2023-03-16T10:46:19.513Z,0.97
2023-03-16T10:49:00.461Z,1.20
2023-03-16T10:51:36.172Z,0.77
2023-03-16T10:54:11.037Z,1.20
2023-03-16T10:56:38.468Z,0.90
2023-03-16T10:59:35.795Z,1.00
2023-03-16T11:02:08.522Z,1.07
2023-03-16T11:04:35.949Z,1.47
2023-03-16T11:07:02.769Z,0.73
2023-03-16T11:09:33.992Z,0.67
2023-03-16T11:12:14.256Z,0.80
2023-03-16T11:14:44.629Z,0.60
2023-03-16T11:17:16.353Z,1.00
2023-03-16T11:19:57.835Z,0.80
2023-03-16T11:22:25.677Z,1.23
2023-03-16T11:25:06.056Z,1.00
2023-03-16T11:27:42.589Z,1.20
2023-03-16T11:30:15.578Z,1.47
2023-03-16T11:32:51.235Z,0.97
2023-03-16T11:35:22.389Z,0.77
2023-03-16T11:37:59.065Z,1.30
2023-03-16T11:40:47.615Z,0.97
2023-03-16T11:43:53.344Z,1.30
2023-03-16T11:46:26.698Z,1.17
2023-03-16T11:49:22.387Z,0.60
2023-03-16T11:51:49.239Z,0.90
2023-03-16T11:54:38.107Z,0.70
2023-03-16T11:57:33.046Z,1.00
2023-03-16T12:00:29.125Z,0.83
2023-03-16T12:03:11.113Z,0.80
2023-03-16T12:05:51.076Z,0.83
2023-03-16T12:09:08.775Z,0.73
2023-03-16T12:11:53.489Z,0.80
2023-03-16T12:14:26.754Z,0.50
2023-03-16T12:17:08.507Z,0.53
2023-03-16T12:19:47.211Z,0.63
2023-03-16T12:22:22.929Z,0.57
2023-03-16T12:24:50.551Z,0.70
2023-03-16T12:27:24.974Z,0.60
2023-03-16T12:30:18.859Z,0.60
2023-03-16T12:33:02.376Z,0.67
2023-03-16T12:35:34.144Z,0.70
2023-03-16T12:38:06.096Z,0.70
2023-03-16T12:40:55.863Z,0.40
2023-03-16T12:43:29.304Z,0.50
2023-03-16T12:46:08.586Z,0.53
2023-03-16T12:48:42.138Z,0.60
2023-03-16T12:51:08.988Z,0.40
2023-03-16T12:53:42.408Z,0.50
2023-03-16T12:56:12.306Z,0.50
2023-03-16T12:58:45.941Z,0.40
2023-03-16T13:01:13.786Z,0.70
2023-03-16T13:03:42.048Z,0.60
2023-03-16T13:06:17.970Z,0.63
2023-03-16T13:08:48.893Z,1.17
2023-03-16T13:11:16.587Z,0.57
2023-03-16T13:14:01.961Z,0.77
2023-03-16T13:16:33.625Z,0.87
2023-03-16T13:19:00.402Z,0.83
2023-03-16T13:21:39.275Z,0.53
2023-03-16T13:24:23.124Z,0.60
2023-03-16T13:26:53.883Z,0.67
2023-03-16T13:29:23.159Z,0.40
2023-03-16T13:31:51.273Z,0.77
2023-03-16T13:34:33.909Z,0.70
2023-03-16T13:37:01.727Z,1.57
2023-03-16T13:39:30.662Z,0.70
2023-03-16T13:42:12.857Z,0.70
2023-03-16T13:44:42.613Z,0.50
2023-03-16T13:47:16.816Z,0.43
2023-03-16T13:50:05.203Z,0.70
2023-03-16T13:52:34.366Z,0.93
2023-03-16T13:55:03.345Z,0.90
2023-03-16T13:57:37.574Z,0.60
2023-03-16T14:00:17.178Z,0.70
2023-03-16T14:02:45.052Z,0.50
2023-03-16T14:05:13.538Z,0.60
2023-03-16T14:07:40.405Z,0.83
2023-03-16T14:10:10.127Z,1.00
2023-03-16T14:12:37.970Z,0.40
2023-03-16T14:15:07.423Z,0.57
2023-03-16T14:17:34.271Z,0.50
2023-03-16T14:20:02.255Z,0.30
2023-03-16T14:22:37.118Z,0.30
2023-03-16T14:25:05.766Z,0.40
2023-03-16T14:27:44.004Z,0.57
2023-03-16T14:30:24.358Z,0.50
2023-03-16T14:33:05.824Z,0.60
2023-03-16T14:35:44.823Z,0.67
2023-03-16T14:38:32.225Z,0.50
2023-03-16T14:41:05.037Z,0.87
2023-03-16T14:43:35.857Z,0.67
2023-03-16T14:46:07.521Z,0.30
2023-03-16T14:48:35.746Z,0.33
2023-03-16T14:51:04.405Z,0.57
2023-03-16T14:53:31.984Z,0.60
2023-03-16T14:55:59.644Z,0.40
2023-03-16T14:58:26.669Z,0.53
2023-03-16T15:00:53.967Z,0.77
2023-03-16T15:03:24.218Z,0.90
2023-03-16T15:05:51.947Z,1.33
2023-03-16T15:08:28.698Z,0.53
2023-03-16T15:10:59.023Z,0.40
2023-03-16T15:13:34.981Z,0.60
2023-03-16T15:16:05.964Z,0.63
2023-03-16T15:18:33.639Z,0.60
2023-03-16T15:21:02.124Z,0.40
2023-03-16T15:23:29.726Z,0.40
2023-03-16T15:26:00.485Z,0.40
2023-03-16T15:28:27.819Z,0.70
2023-03-16T15:30:57.514Z,1.50
2023-03-16T15:33:25.029Z,0.93
2023-03-16T15:35:53.718Z,3.80
2023-03-16T15:38:24.750Z,2.13
2023-03-16T15:40:52.268Z,1.20
2023-03-16T15:43:21.377Z,1.20
2023-03-16T15:45:48.262Z,0.77
2023-03-16T15:48:16.470Z,0.47
2023-03-16T15:50:50.382Z,1.10
2023-03-16T15:53:31.074Z,1.40
2023-03-16T15:56:03.814Z,0.90
2023-03-16T15:58:32.681Z,1.70
2023-03-16T16:01:00.211Z,0.70
2023-03-16T16:03:27.825Z,1.70
2023-03-16T16:05:54.904Z,0.83
2023-03-16T16:08:21.848Z,0.80
2023-03-16T16:10:49.661Z,0.60
2023-03-16T16:13:19.052Z,1.80
2023-03-16T16:15:47.206Z,0.50
2023-03-16T16:18:27.314Z,1.17
2023-03-16T16:20:54.855Z,0.73
2023-03-16T16:23:21.639Z,0.83
2023-03-16T16:25:48.731Z,0.80
2023-03-16T16:28:18.710Z,0.47
2023-03-16T16:30:46.193Z,1.50
2023-03-16T16:33:31.132Z,1.53
2023-03-16T16:36:00.014Z,0.40
2023-03-16T16:38:26.847Z,0.30
2023-03-16T16:40:54.584Z,0.80
2023-03-16T16:43:36.763Z,0.90
2023-03-16T16:46:07.462Z,0.70
2023-03-16T16:48:36.907Z,0.50
2023-03-16T16:51:07.191Z,0.50
2023-03-16T16:53:33.959Z,0.63
2023-03-16T16:56:01.107Z,1.00
2023-03-16T16:58:27.862Z,0.50
2023-03-16T17:00:58.197Z,0.50
2023-03-16T17:03:28.420Z,0.33
2023-03-16T17:05:57.953Z,1.83
2023-03-16T17:08:25.548Z,1.80
2023-03-16T17:10:53.450Z,1.70
2023-03-16T17:13:39.202Z,1.10
2023-03-16T17:16:07.421Z,0.60
2023-03-16T17:18:34.129Z,0.50
2023-03-16T17:21:00.868Z,0.63
2023-03-16T17:23:33.260Z,1.17
2023-03-16T17:26:04.364Z,0.40
2023-03-16T17:28:35.444Z,0.53
2023-03-16T17:31:02.282Z,1.10
2023-03-16T17:33:29.177Z,0.73
2023-03-16T17:35:56.125Z,0.87
2023-03-16T17:38:25.372Z,0.80
2023-03-16T17:40:53.229Z,1.13
2023-03-16T17:43:21.929Z,0.40
2023-03-16T17:45:51.421Z,0.70
2023-03-16T17:48:20.361Z,0.50
2023-03-16T17:50:47.921Z,0.77
2023-03-16T17:53:15.987Z,1.20
2023-03-16T17:55:43.838Z,0.73
2023-03-16T17:58:30.303Z,2.87
2023-03-16T18:00:58.511Z,1.53
2023-03-16T18:03:26.601Z,0.73
2023-03-16T18:05:53.866Z,1.00
2023-03-16T18:08:29.191Z,0.60
2023-03-16T18:11:09.815Z,0.90
2023-03-16T18:13:38.438Z,0.80
2023-03-16T18:16:06.360Z,0.80
2023-03-16T18:18:37.089Z,0.60
2023-03-16T18:21:04.843Z,1.10
2023-03-16T18:23:35.946Z,0.50
2023-03-16T18:26:07.098Z,0.40
2023-03-16T18:28:34.852Z,0.63
2023-03-16T18:31:03.826Z,1.00
2023-03-16T18:33:32.679Z,1.43
2023-03-16T18:36:20.648Z,1.43
2023-03-16T18:38:50.557Z,1.10
2023-03-16T18:41:22.844Z,2.50
2023-03-16T18:43:55.261Z,2.40
2023-03-16T18:46:29.993Z,1.20
2023-03-16T18:49:18.399Z,1.60
2023-03-16T18:51:49.181Z,0.70
2023-03-16T18:54:30.702Z,0.63
2023-03-16T18:56:59.016Z,0.47
2023-03-16T18:59:26.358Z,0.70
2023-03-16T19:01:53.524Z,0.50
2023-03-16T19:04:25.656Z,0.53
2023-03-16T19:06:54.131Z,0.33
2023-03-16T19:09:23.706Z,0.40
2023-03-16T19:11:51.166Z,0.40
2023-03-16T19:14:20.883Z,0.53
2023-03-16T19:16:47.892Z,0.90
2023-03-16T19:19:15.244Z,0.70
2023-03-16T19:21:42.778Z,0.67
2023-03-16T19:24:20.905Z,0.67
2023-03-16T19:26:47.729Z,0.90
2023-03-16T19:29:14.682Z,0.70
2023-03-16T19:31:41.877Z,5.80
2023-03-16T19:34:18.650Z,1.00
2023-03-16T19:36:45.370Z,1.17
2023-03-16T19:39:17.131Z,1.97
2023-03-16T19:41:46.579Z,3.00
2023-03-16T19:44:27.285Z,1.00
2023-03-16T19:46:55.121Z,0.97
2023-03-16T19:49:24.445Z,0.83
2023-03-16T19:51:52.246Z,1.17
2023-03-16T19:54:31.668Z,1.17
2023-03-16T19:57:01.200Z,1.40
2023-03-16T19:59:31.350Z,1.40
2023-03-16T20:01:58.099Z,1.00
2023-03-16T20:04:26.634Z,0.80
2023-03-16T20:06:54.015Z,1.10
2023-03-16T20:09:22.147Z,0.73
2023-03-16T20:11:49.600Z,1.73
2023-03-16T20:14:32.061Z,1.17
2023-03-16T20:16:59.736Z,1.10
2023-03-16T20:19:26.603Z,0.83
2023-03-16T20:21:53.256Z,1.17
2023-03-16T20:24:21.303Z,1.30
2023-03-16T20:26:51.456Z,1.33
2023-03-16T20:29:30.506Z,1.57
2023-03-16T20:31:57.733Z,1.13
2023-03-16T20:34:32.464Z,1.60
2023-03-16T20:37:01.191Z,2.00
2023-03-16T20:39:28.376Z,2.30
2023-03-16T20:41:56.391Z,2.93
2023-03-16T20:44:26.687Z,3.67
2023-03-16T20:46:56.338Z,2.30
2023-03-16T20:49:22.988Z,1.73
2023-03-16T20:51:50.660Z,1.67
2023-03-16T20:54:17.911Z,1.17
2023-03-16T20:56:46.631Z,1.80
2023-03-16T20:59:22.386Z,1.17
2023-03-16T21:01:50.440Z,1.03
2023-03-16T21:04:27.792Z,1.30
2023-03-16T21:06:57.337Z,2.17
2023-03-16T21:09:24.145Z,0.97
2023-03-16T21:11:52.813Z,1.23
2023-03-16T21:14:24.376Z,1.20
2023-03-16T21:16:52.588Z,0.93
2023-03-16T21:19:23.405Z,2.00
2023-03-16T21:21:51.350Z,1.00
2023-03-16T21:51:32.512Z,0.87
2023-03-16T21:53:59.344Z,0.80
2023-03-16T21:56:26.252Z,1.10
2023-03-16T21:58:53.900Z,1.20
2023-03-16T22:01:24.810Z,1.27
2023-03-16T22:03:53.981Z,1.67
2023-03-16T22:06:25.813Z,2.17
2023-03-16T22:08:52.688Z,1.37
2023-03-16T22:11:26.100Z,1.20
2023-03-16T22:13:52.793Z,1.03
2023-03-16T22:16:22.101Z,1.17
2023-03-16T22:18:51.006Z,0.90
2023-03-16T22:21:36.567Z,0.60
2023-03-16T22:24:05.545Z,0.60
2023-03-16T22:26:32.482Z,1.07
2023-03-16T22:29:02.264Z,1.50
2023-03-16T22:31:34.172Z,0.87
2023-03-16T22:34:02.860Z,1.93
2023-03-16T22:36:30.075Z,1.10
2023-03-16T22:38:59.972Z,1.60
2023-03-16T22:41:26.870Z,1.20
2023-03-16T22:43:54.212Z,1.57
2023-03-16T22:46:23.762Z,1.40
2023-03-16T22:48:52.206Z,0.60
2023-03-16T22:51:30.133Z,0.80
2023-03-16T22:53:59.963Z,1.20
2023-03-16T22:56:27.347Z,0.60
2023-03-16T22:59:04.993Z,0.90
2023-03-16T23:01:41.913Z,1.10
2023-03-16T23:04:15.369Z,1.00
2023-03-16T23:06:42.385Z,0.80
2023-03-16T23:09:13.730Z,0.50
2023-03-16T23:11:43.455Z,0.50
2023-03-16T23:14:14.968Z,0.83
2023-03-16T23:16:42.033Z,0.90
2023-03-16T23:19:24.704Z,0.83
2023-03-16T23:21:53.235Z,0.60
2023-03-16T23:24:19.927Z,0.97
2023-03-16T23:26:46.836Z,0.90
2023-03-16T23:29:13.808Z,3.03
2023-03-16T23:31:40.990Z,0.63
2023-03-16T23:34:15.554Z,1.30
2023-03-16T23:36:42.185Z,1.10
2023-03-16T23:39:10.532Z,0.80
2023-03-16T23:41:38.742Z,1.20
2023-03-16T23:44:06.663Z,1.37
2023-03-16T23:46:34.076Z,0.63
2023-03-16T23:49:04.227Z,1.10
2023-03-16T23:51:35.001Z,1.40
2023-03-16T23:54:01.730Z,1.60
2023-03-16T23:56:28.424Z,1.60
2023-03-16T23:58:55.113Z,1.50
